createdAt,value
2019-01-06T00:00:01.430Z,102610.83
2019-01-06T00:02:35.365Z,102608.45
2019-01-06T00:05:22.297Z,102613.41
2019-01-06T00:08:08.806Z,102618.53
2019-01-06T00:10:54.299Z,102609.81
2019-01-06T00:13:43.270Z,102604.31
2019-01-06T00:16:30.115Z,102605.43
2019-01-06T00:19:03.440Z,102598.59
2019-01-06T00:21:40.069Z,102596.77
2019-01-06T00:24:10.944Z,102599.42
2019-01-06T00:26:57.469Z,102601.27
2019-01-06T00:29:31.019Z,102609.58
2019-01-06T00:32:04.346Z,102609.95
2019-01-06T00:34:44.034Z,102610.11
2019-01-06T00:37:31.133Z,102612.02
2019-01-06T00:40:06.715Z,102603.25
2019-01-06T00:42:52.784Z,102606.27
2019-01-06T00:45:39.432Z,102596.17
2019-01-06T00:48:12.969Z,102612.21
2019-01-06T00:50:50.908Z,102607.48
2019-01-06T00:53:21.808Z,102610.91
2019-01-06T00:55:53.726Z,102611.22
2019-01-06T00:58:42.433Z,102618.53
2019-01-06T01:01:28.979Z,102625.16
2019-01-06T01:03:59.852Z,102615.48
2019-01-06T01:06:30.771Z,102620.70
2019-01-06T01:09:22.286Z,102616.52
2019-01-06T01:11:56.525Z,102621.36
2019-01-06T01:14:31.024Z,102614.09
2019-01-06T01:17:04.433Z,102620.88
2019-01-06T01:19:38.234Z,102622.78
2019-01-06T01:22:09.140Z,102622.50
2019-01-06T01:24:45.668Z,102624.12
2019-01-06T01:27:32.455Z,102634.75
2019-01-06T01:30:03.365Z,102625.92
2019-01-06T01:32:50.273Z,102623.69
2019-01-06T01:35:21.147Z,102629.72
2019-01-06T01:38:07.091Z,102641.83
2019-01-06T01:40:47.611Z,102639.81
2019-01-06T01:43:27.327Z,102642.95
2019-01-06T01:46:16.151Z,102640.70
2019-01-06T01:49:02.947Z,102635.40
2019-01-06T01:51:50.011Z,102640.00
2019-01-06T01:54:26.812Z,102642.01
2019-01-06T01:57:15.548Z,102640.84
2019-01-06T01:59:49.176Z,102638.02
2019-01-06T02:02:29.106Z,102640.33
2019-01-06T02:05:16.238Z,102638.34
2019-01-06T02:07:50.190Z,102639.89
2019-01-06T02:10:37.109Z,102636.35
2019-01-06T02:13:10.670Z,102638.39
2019-01-06T02:15:41.578Z,102643.02
2019-01-06T02:18:18.254Z,102642.03
2019-01-06T02:20:58.215Z,102641.64
2019-01-06T02:23:31.992Z,102639.77
2019-01-06T02:26:09.554Z,102640.84
2019-01-06T02:28:40.439Z,102644.66
2019-01-06T02:31:23.488Z,102648.09
2019-01-06T02:34:03.040Z,102651.52
2019-01-06T02:36:33.958Z,102654.75
2019-01-06T02:39:13.914Z,102655.05
2019-01-06T02:42:00.963Z,102649.67
2019-01-06T02:44:31.856Z,102650.84
2019-01-06T02:47:08.482Z,102647.02
2019-01-06T02:49:48.207Z,102648.09
2019-01-06T02:52:28.009Z,102653.33
2019-01-06T02:55:04.396Z,102655.83
2019-01-06T02:57:53.191Z,102652.70
2019-01-06T03:00:40.407Z,102650.66
2019-01-06T03:03:14.210Z,102648.30
2019-01-06T03:05:57.608Z,102643.27
2019-01-06T03:08:28.527Z,102644.77
2019-01-06T03:11:15.299Z,102640.51
2019-01-06T03:13:46.191Z,102640.22
2019-01-06T03:16:17.094Z,102631.97
2019-01-06T03:18:56.737Z,102640.91
2019-01-06T03:21:27.620Z,102642.25
2019-01-06T03:24:16.368Z,102638.23
2019-01-06T03:26:55.878Z,102633.26
2019-01-06T03:29:26.773Z,102628.75
2019-01-06T03:32:09.281Z,102631.28
2019-01-06T03:34:58.154Z,102626.94
2019-01-06T03:37:32.002Z,102625.11
2019-01-06T03:40:02.840Z,102623.84
2019-01-06T03:42:34.115Z,102619.65
2019-01-06T03:45:21.341Z,102618.31
2019-01-06T03:47:54.633Z,102612.62
2019-01-06T03:50:25.532Z,102611.28
2019-01-06T03:53:12.542Z,102610.85
2019-01-06T03:56:01.231Z,102614.89
2019-01-06T03:58:32.120Z,102613.93
2019-01-06T04:01:09.074Z,102604.94
2019-01-06T04:03:45.789Z,102602.26
2019-01-06T04:06:32.716Z,102599.13
2019-01-06T04:09:18.449Z,102594.77
2019-01-06T04:11:55.064Z,102591.80
2019-01-06T04:14:41.869Z,102592.52
2019-01-06T04:17:18.797Z,102593.56
2019-01-06T04:20:05.716Z,102600.06
2019-01-06T04:22:52.922Z,102595.32
2019-01-06T04:25:39.533Z,102594.06
2019-01-06T04:28:25.321Z,102588.95
2019-01-06T04:30:58.894Z,102590.56
2019-01-06T04:33:35.287Z,102590.81
2019-01-06T04:36:20.962Z,102595.24
2019-01-06T04:39:07.593Z,102590.61
2019-01-06T04:41:54.613Z,102587.16
2019-01-06T04:44:42.422Z,102584.78
2019-01-06T04:47:15.933Z,102586.17
2019-01-06T04:49:52.394Z,102579.96
2019-01-06T04:52:35.021Z,102582.19
2019-01-06T04:55:08.599Z,102581.17
2019-01-06T04:58:01.356Z,102581.00
2019-01-06T05:00:34.890Z,102586.55
2019-01-06T05:03:21.763Z,102578.88
2019-01-06T05:06:08.773Z,102574.63
2019-01-06T05:08:39.635Z,102580.77
2019-01-06T05:11:10.514Z,102580.69
2019-01-06T05:13:41.406Z,102583.42
2019-01-06T05:16:23.792Z,102587.22
2019-01-06T05:19:00.720Z,102581.47
2019-01-06T05:21:35.663Z,102580.88
2019-01-06T05:24:09.193Z,102581.70
2019-01-06T05:26:40.113Z,102581.84
2019-01-06T05:29:28.853Z,102586.61
2019-01-06T05:31:59.732Z,102580.58
2019-01-06T05:34:30.617Z,102582.45
2019-01-06T05:37:04.463Z,102587.13
2019-01-06T05:39:35.361Z,102586.09
2019-01-06T05:42:06.258Z,102589.66
2019-01-06T05:44:42.562Z,102598.67
2019-01-06T05:47:18.866Z,102597.27
2019-01-06T05:49:49.768Z,102595.86
2019-01-06T05:52:23.387Z,102603.47
2019-01-06T05:55:06.263Z,102600.97
2019-01-06T05:57:49.248Z,102608.22
2019-01-06T06:00:20.124Z,102606.73
2019-01-06T06:02:53.689Z,102605.44
2019-01-06T06:05:40.766Z,102611.36
2019-01-06T06:08:29.520Z,102609.67
2019-01-06T06:11:00.462Z,102617.06
2019-01-06T06:13:45.905Z,102616.13
2019-01-06T06:16:33.028Z,102616.71
2019-01-06T06:19:19.852Z,102621.10
2019-01-06T06:21:59.746Z,102612.70
2019-01-06T06:24:46.703Z,102617.97
2019-01-06T06:27:20.484Z,102630.63
2019-01-06T06:29:54.319Z,102624.02
2019-01-06T06:32:34.143Z,102626.97
2019-01-06T06:35:20.738Z,102634.40
2019-01-06T06:38:00.481Z,102639.52
2019-01-06T06:40:46.168Z,102634.73
2019-01-06T06:43:25.587Z,102636.33
2019-01-06T06:46:11.268Z,102641.79
2019-01-06T06:48:45.132Z,102642.58
2019-01-06T06:51:15.996Z,102643.00
2019-01-06T06:54:02.943Z,102644.20
2019-01-06T06:56:58.461Z,102650.13
2019-01-06T06:59:45.023Z,102653.05
2019-01-06T07:02:36.970Z,102657.59
2019-01-06T07:05:10.363Z,102655.75
2019-01-06T07:07:46.952Z,102663.31
2019-01-06T07:10:33.720Z,102662.54
2019-01-06T07:13:08.165Z,102663.70
2019-01-06T07:15:55.007Z,102674.87
2019-01-06T07:18:25.890Z,102675.88
2019-01-06T07:21:12.751Z,102677.02
2019-01-06T07:23:46.057Z,102679.33
2019-01-06T07:26:29.704Z,102687.42
2019-01-06T07:29:06.291Z,102688.59
2019-01-06T07:31:37.169Z,102692.21
2019-01-06T07:34:24.159Z,102694.11
2019-01-06T07:37:04.141Z,102697.09
2019-01-06T07:39:51.052Z,102689.87
2019-01-06T07:42:28.068Z,102699.48
2019-01-06T07:45:08.788Z,102691.42
2019-01-06T07:47:45.586Z,102696.30
2019-01-06T07:50:22.506Z,102696.68
2019-01-06T07:53:02.178Z,102703.85
2019-01-06T07:55:42.700Z,102708.47
2019-01-06T07:58:25.431Z,102701.49
2019-01-06T08:01:05.112Z,102705.42
2019-01-06T08:03:41.666Z,102708.95
2019-01-06T08:06:18.545Z,102710.09
2019-01-06T08:08:49.449Z,102704.78
2019-01-06T08:11:36.716Z,102712.62
2019-01-06T08:14:08.620Z,102709.88
2019-01-06T08:16:49.443Z,102720.14
2019-01-06T08:19:23.638Z,102721.66
2019-01-06T08:21:54.534Z,102718.70
2019-01-06T08:24:30.902Z,102727.17
2019-01-06T08:27:10.205Z,102728.64
2019-01-06T08:29:41.102Z,102733.08
2019-01-06T08:32:21.014Z,102738.84
2019-01-06T08:35:08.172Z,102738.58
2019-01-06T08:37:53.660Z,102740.30
2019-01-06T08:40:24.546Z,102743.38
2019-01-06T08:42:59.405Z,102744.66
2019-01-06T08:45:46.215Z,102746.99
2019-01-06T08:48:17.125Z,102745.06
2019-01-06T08:50:59.914Z,102745.56
2019-01-06T08:53:48.724Z,102746.59
2019-01-06T08:56:35.636Z,102748.37
2019-01-06T08:59:21.552Z,102745.92
2019-01-06T09:02:07.536Z,102747.05
2019-01-06T09:04:38.431Z,102748.97
2019-01-06T09:07:23.843Z,102744.47
2019-01-06T09:10:07.782Z,102744.66
2019-01-06T09:12:54.803Z,102746.00
2019-01-06T09:15:31.561Z,102744.69
2019-01-06T09:18:04.293Z,102752.41
2019-01-06T09:20:51.821Z,102750.45
2019-01-06T09:23:25.384Z,102752.05
2019-01-06T09:26:11.103Z,102752.67
2019-01-06T09:28:59.773Z,102749.58
2019-01-06T09:31:48.742Z,102747.66
2019-01-06T09:34:26.445Z,102753.85
2019-01-06T09:36:57.339Z,102754.14
2019-01-06T09:39:28.200Z,102758.70
2019-01-06T09:41:59.123Z,102753.80
2019-01-06T09:44:30.046Z,102759.20
2019-01-06T09:47:16.839Z,102764.02
2019-01-06T09:49:51.397Z,102765.14
2019-01-06T09:52:28.176Z,102765.62
2019-01-06T09:55:15.179Z,102764.41
2019-01-06T09:57:51.777Z,102764.69
2019-01-06T10:00:38.541Z,102768.26
2019-01-06T10:03:12.410Z,102772.39
2019-01-06T10:05:59.264Z,102769.55
2019-01-06T10:08:46.172Z,102765.66
2019-01-06T10:11:28.772Z,102772.26
2019-01-06T10:13:59.690Z,102779.73
2019-01-06T10:16:30.563Z,102775.41
2019-01-06T10:19:10.370Z,102775.18
2019-01-06T10:21:50.376Z,102778.25
2019-01-06T10:24:36.694Z,102780.34
2019-01-06T10:27:16.389Z,102778.98
2019-01-06T10:29:47.281Z,102779.55
2019-01-06T10:32:34.081Z,102786.94
2019-01-06T10:35:13.762Z,102779.22
2019-01-06T10:37:53.363Z,102782.27
2019-01-06T10:40:42.065Z,102779.91
2019-01-06T10:43:21.783Z,102772.05
2019-01-06T10:45:52.659Z,102784.14
2019-01-06T10:48:39.731Z,102778.44
2019-01-06T10:51:27.718Z,102779.58
2019-01-06T10:54:05.534Z,102780.34
2019-01-06T10:56:52.354Z,102780.64
2019-01-06T10:59:40.835Z,102772.86
2019-01-06T11:02:14.388Z,102780.67
2019-01-06T11:04:57.234Z,102788.19
2019-01-06T11:07:28.154Z,102784.72
2019-01-06T11:10:05.151Z,102783.56
2019-01-06T11:12:51.107Z,102789.88
2019-01-06T11:15:38.042Z,102786.19
2019-01-06T11:18:15.008Z,102775.02
2019-01-06T11:20:45.898Z,102782.09
2019-01-06T11:23:16.872Z,102787.04
2019-01-06T11:26:04.014Z,102784.88
2019-01-06T11:28:41.945Z,102794.50
2019-01-06T11:31:18.359Z,102795.81
2019-01-06T11:34:04.883Z,102794.25
2019-01-06T11:36:47.463Z,102791.03
2019-01-06T11:39:30.216Z,102792.23
2019-01-06T11:42:01.199Z,102787.45
2019-01-06T11:44:47.724Z,102783.06
2019-01-06T11:47:27.622Z,102783.19
2019-01-06T11:50:04.108Z,102782.30
2019-01-06T11:52:49.559Z,102779.95
2019-01-06T11:55:36.624Z,102779.68
2019-01-06T11:58:07.587Z,102783.67
2019-01-06T12:00:40.873Z,102780.03
2019-01-06T12:03:27.712Z,102772.56
2019-01-06T12:06:15.826Z,102777.74
2019-01-06T12:08:53.563Z,102773.19
2019-01-06T12:11:36.298Z,102769.95
2019-01-06T12:14:16.210Z,102765.52
2019-01-06T12:17:01.956Z,102770.23
2019-01-06T12:19:35.603Z,102770.52
2019-01-06T12:22:12.292Z,102762.92
2019-01-06T12:24:52.303Z,102763.10
2019-01-06T12:27:39.501Z,102759.89
2019-01-06T12:30:10.394Z,102759.28
2019-01-06T12:32:52.334Z,102751.70
2019-01-06T12:35:24.125Z,102755.02
2019-01-06T12:37:55.021Z,102762.41
2019-01-06T12:40:31.614Z,102755.36
2019-01-06T12:43:15.045Z,102756.78
2019-01-06T12:45:48.621Z,102756.67
2019-01-06T12:48:19.490Z,102758.42
2019-01-06T12:50:50.516Z,102760.84
2019-01-06T12:53:22.316Z,102751.45
2019-01-06T12:55:58.845Z,102753.93
2019-01-06T12:58:32.367Z,102764.97
2019-01-06T13:01:15.082Z,102760.59
2019-01-06T13:03:47.915Z,102762.18
2019-01-06T13:06:19.768Z,102754.33
2019-01-06T13:09:02.438Z,102764.02
2019-01-06T13:11:50.641Z,102764.61
2019-01-06T13:14:38.416Z,102765.98
2019-01-06T13:17:16.890Z,102764.12
2019-01-06T13:19:47.811Z,102767.47
2019-01-06T13:22:30.480Z,102777.34
2019-01-06T13:25:02.342Z,102771.12
2019-01-06T13:27:35.650Z,102772.77
2019-01-06T13:30:25.416Z,102770.53
2019-01-06T13:33:06.077Z,102770.25
2019-01-06T13:35:49.939Z,102762.06
2019-01-06T13:38:26.625Z,102758.83
2019-01-06T13:41:13.381Z,102766.08
2019-01-06T13:43:59.928Z,102762.84
2019-01-06T13:46:47.728Z,102772.50
2019-01-06T13:49:34.513Z,102768.81
2019-01-06T13:52:07.496Z,102771.42
2019-01-06T13:54:41.293Z,102774.75
2019-01-06T13:57:14.974Z,102778.05
2019-01-06T14:00:01.954Z,102776.38
2019-01-06T14:02:49.146Z,102775.63
2019-01-06T14:05:29.051Z,102778.86
2019-01-06T14:08:03.599Z,102773.75
2019-01-06T14:10:37.184Z,102785.13
2019-01-06T14:13:25.288Z,102784.80
2019-01-06T14:16:09.776Z,102787.89
2019-01-06T14:18:56.591Z,102788.49
2019-01-06T14:21:34.133Z,102794.41
2019-01-06T14:24:21.158Z,102798.38
2019-01-06T14:27:03.683Z,102803.27
2019-01-06T14:29:50.733Z,102800.44
2019-01-06T14:32:24.025Z,102799.87
2019-01-06T14:34:54.903Z,102800.59
2019-01-06T14:37:41.548Z,102808.41
2019-01-06T14:40:24.396Z,102804.39
2019-01-06T14:43:01.139Z,102805.63
2019-01-06T14:45:56.641Z,102800.87
2019-01-06T14:48:40.599Z,102801.13
2019-01-06T14:51:20.184Z,102803.31
2019-01-06T14:53:53.586Z,102804.02
2019-01-06T14:56:43.329Z,102800.62
2019-01-06T14:59:30.134Z,102808.59
2019-01-06T15:02:07.817Z,102809.64
2019-01-06T15:04:56.599Z,102809.98
2019-01-06T15:07:27.489Z,102814.22
2019-01-06T15:09:58.433Z,102815.28
2019-01-06T15:12:34.221Z,102817.50
2019-01-06T15:15:10.784Z,102811.32
2019-01-06T15:17:58.885Z,102819.22
2019-01-06T15:20:46.486Z,102817.70
2019-01-06T15:23:17.392Z,102812.58
2019-01-06T15:26:05.844Z,102817.54
2019-01-06T15:28:55.608Z,102816.51
2019-01-06T15:31:26.487Z,102819.50
2019-01-06T15:33:58.378Z,102823.77
2019-01-06T15:36:39.995Z,102824.43
2019-01-06T15:39:27.549Z,102822.52
2019-01-06T15:42:01.094Z,102821.09
2019-01-06T15:44:49.173Z,102821.81
2019-01-06T15:47:23.672Z,102828.00
2019-01-06T15:50:12.596Z,102829.05
2019-01-06T15:52:46.434Z,102821.25
2019-01-06T15:55:22.765Z,102826.63
2019-01-06T15:58:09.596Z,102823.98
2019-01-06T16:00:48.916Z,102828.68
2019-01-06T16:03:36.925Z,102826.98
2019-01-06T16:06:10.260Z,102826.30
2019-01-06T16:08:56.886Z,102828.05
2019-01-06T16:11:39.914Z,102829.22
2019-01-06T16:14:14.546Z,102830.22
2019-01-06T16:16:51.312Z,102833.01
2019-01-06T16:19:40.323Z,102830.30
2019-01-06T16:22:17.102Z,102830.88
2019-01-06T16:25:00.078Z,102832.25
2019-01-06T16:27:48.789Z,102833.91
2019-01-06T16:30:31.427Z,102832.92
2019-01-06T16:33:11.367Z,102833.60
2019-01-06T16:35:43.203Z,102829.56
2019-01-06T16:38:29.919Z,102836.13
2019-01-06T16:41:03.497Z,102842.19
2019-01-06T16:43:35.386Z,102837.70
2019-01-06T16:46:08.968Z,102842.25
2019-01-06T16:48:41.792Z,102840.86
2019-01-06T16:51:31.218Z,102845.61
2019-01-06T16:54:11.803Z,102841.00
2019-01-06T16:56:58.388Z,102843.34
2019-01-06T16:59:29.302Z,102846.25
2019-01-06T17:02:00.177Z,102844.26
2019-01-06T17:04:31.991Z,102845.48
2019-01-06T17:07:08.802Z,102839.90
2019-01-06T17:09:42.627Z,102845.12
2019-01-06T17:12:31.801Z,102849.42
2019-01-06T17:15:21.544Z,102851.48
2019-01-06T17:17:58.445Z,102851.41
2019-01-06T17:20:34.994Z,102849.98
2019-01-06T17:23:05.921Z,102853.36
2019-01-06T17:25:42.784Z,102852.45
2019-01-06T17:28:25.436Z,102846.33
2019-01-06T17:30:57.306Z,102849.64
2019-01-06T17:33:40.020Z,102853.22
2019-01-06T17:36:13.674Z,102847.98
2019-01-06T17:38:47.528Z,102847.56
2019-01-06T17:41:38.958Z,102847.84
2019-01-06T17:44:19.523Z,102844.17
2019-01-06T17:47:07.793Z,102845.86
2019-01-06T17:49:41.359Z,102851.92
2019-01-06T17:52:23.139Z,102851.90
2019-01-06T17:55:02.605Z,102856.31
2019-01-06T17:57:35.899Z,102853.72
2019-01-06T18:00:09.961Z,102858.46
2019-01-06T18:02:52.663Z,102862.70
2019-01-06T18:05:41.163Z,102861.77
2019-01-06T18:08:13.041Z,102866.91
2019-01-06T18:10:59.745Z,102868.33
2019-01-06T18:13:39.174Z,102874.94
2019-01-06T18:16:10.087Z,102875.84
2019-01-06T18:18:47.794Z,102876.16
2019-01-06T18:21:34.404Z,102881.69
2019-01-06T18:24:10.800Z,102884.23
2019-01-06T18:26:57.819Z,102887.28
2019-01-06T18:29:44.681Z,102887.63
2019-01-06T18:32:30.421Z,102878.95
2019-01-06T18:35:20.249Z,102878.89
2019-01-06T18:38:09.355Z,102884.73
2019-01-06T18:40:46.228Z,102879.64
2019-01-06T18:43:28.947Z,102887.26
2019-01-06T18:46:15.562Z,102881.14
2019-01-06T18:49:03.089Z,102884.13
2019-01-06T18:51:36.905Z,102880.05
2019-01-06T18:54:24.402Z,102888.63
2019-01-06T18:56:55.312Z,102883.31
2019-01-06T18:59:29.082Z,102881.47
2019-01-06T19:02:00.897Z,102891.66
2019-01-06T19:04:41.367Z,102895.04
2019-01-06T19:07:19.398Z,102894.55
2019-01-06T19:09:52.736Z,102888.27
2019-01-06T19:12:26.350Z,102893.53
2019-01-06T19:15:13.914Z,102885.52
2019-01-06T19:18:00.602Z,102886.05
2019-01-06T19:20:47.669Z,102883.98
2019-01-06T19:23:21.479Z,102896.43
2019-01-06T19:26:04.052Z,102891.84
2019-01-06T19:28:50.646Z,102896.97
2019-01-06T19:31:21.551Z,102892.17
2019-01-06T19:34:00.988Z,102897.28
2019-01-06T19:36:47.859Z,102896.82
2019-01-06T19:39:21.437Z,102902.85
2019-01-06T19:42:08.286Z,102899.94
2019-01-06T19:44:51.747Z,102906.44
2019-01-06T19:47:28.488Z,102892.22
2019-01-06T19:50:02.290Z,102901.13
2019-01-06T19:52:35.588Z,102891.31
2019-01-06T19:55:12.708Z,102891.48
2019-01-06T19:57:47.186Z,102892.97
2019-01-06T20:00:20.280Z,102888.01
2019-01-06T20:02:51.165Z,102892.75
2019-01-06T20:05:24.855Z,102890.77
2019-01-06T20:08:07.608Z,102888.20
2019-01-06T20:10:51.206Z,102888.27
2019-01-06T20:13:34.167Z,102892.42
2019-01-06T20:16:22.777Z,102891.28
2019-01-06T20:18:56.596Z,102895.57
2019-01-06T20:21:34.482Z,102896.45
2019-01-06T20:24:08.033Z,102889.90
2019-01-06T20:26:54.467Z,102893.05
2019-01-06T20:29:37.342Z,102894.05
2019-01-06T20:32:10.897Z,102893.34
2019-01-06T20:34:41.780Z,102895.13
2019-01-06T20:37:22.122Z,102897.75
2019-01-06T20:40:01.462Z,102906.43
2019-01-06T20:42:42.182Z,102911.95
2019-01-06T20:45:13.068Z,102908.06
2019-01-06T20:47:59.145Z,102905.97
2019-01-06T20:50:30.037Z,102906.59
2019-01-06T20:53:17.755Z,102916.34
2019-01-06T20:55:48.640Z,102912.01
2019-01-06T20:58:28.214Z,102914.69
2019-01-06T21:00:59.082Z,102911.08
2019-01-06T21:03:46.040Z,102910.03
2019-01-06T21:06:23.506Z,102913.95
2019-01-06T21:08:54.479Z,102913.88
2019-01-06T21:11:35.031Z,102920.15
2019-01-06T21:14:05.963Z,102916.29
2019-01-06T21:16:37.743Z,102916.67
2019-01-06T21:19:11.337Z,102913.89
2019-01-06T21:21:54.147Z,102919.13
2019-01-06T21:24:40.214Z,102923.98
2019-01-06T21:27:19.820Z,102925.03
2019-01-06T21:29:50.735Z,102923.40
2019-01-06T21:32:30.530Z,102924.80
2019-01-06T21:35:14.183Z,102921.27
2019-01-06T21:37:50.826Z,102926.81
2019-01-06T21:40:37.692Z,102928.86
2019-01-06T21:43:11.497Z,102935.70
2019-01-06T21:45:58.207Z,102931.86
2019-01-06T21:48:31.945Z,102934.32
2019-01-06T21:51:02.861Z,102932.34
2019-01-06T21:53:36.631Z,102924.14
2019-01-06T21:56:13.256Z,102932.88
2019-01-06T21:58:46.834Z,102926.91
2019-01-06T22:01:34.615Z,102931.64
2019-01-06T22:04:05.485Z,102923.81
2019-01-06T22:06:48.274Z,102925.32
2019-01-06T22:09:22.738Z,102924.23
2019-01-06T22:12:09.593Z,102925.61
2019-01-06T22:14:52.297Z,102919.83
2019-01-06T22:17:38.359Z,102918.42
2019-01-06T22:20:18.150Z,102916.23
2019-01-06T22:23:04.669Z,102916.35
2019-01-06T22:25:45.470Z,102907.95
2019-01-06T22:28:21.785Z,102906.19
2019-01-06T22:30:52.669Z,102908.56
2019-01-06T22:33:38.108Z,102899.79
2019-01-06T22:36:09.002Z,102902.77
2019-01-06T22:38:39.897Z,102902.56
2019-01-06T22:41:13.491Z,102900.81
2019-01-06T22:43:56.441Z,102899.16
2019-01-06T22:46:32.987Z,102901.00
2019-01-06T22:49:09.597Z,102905.16
2019-01-06T22:51:49.286Z,102902.05
2019-01-06T22:54:36.103Z,102905.38
2019-01-06T22:57:23.635Z,102899.92
2019-01-06T23:00:06.551Z,102896.12
2019-01-06T23:02:38.419Z,102903.40
2019-01-06T23:05:09.488Z,102897.78
2019-01-06T23:07:40.385Z,102908.34
2019-01-06T23:10:15.221Z,102903.05
2019-01-06T23:12:48.756Z,102897.11
2019-01-06T23:15:22.151Z,102899.38
2019-01-06T23:18:08.724Z,102896.53
2019-01-06T23:20:40.726Z,102894.37
2019-01-06T23:23:27.557Z,102899.70
2019-01-06T23:26:14.713Z,102897.49
2019-01-06T23:28:48.353Z,102901.20
2019-01-06T23:31:35.412Z,102905.77
2019-01-06T23:34:06.299Z,102896.12
2019-01-06T23:36:54.130Z,102903.13
2019-01-06T23:39:29.014Z,102898.67
2019-01-06T23:42:11.827Z,102900.06
2019-01-06T23:44:42.711Z,102904.66
2019-01-06T23:47:13.590Z,102903.55
2019-01-06T23:49:52.875Z,102906.49
2019-01-06T23:52:39.403Z,102914.80
2019-01-06T23:55:28.961Z,102908.11
2019-01-06T23:58:14.376Z,102908.85
